Time;durP1;ratioP1;P1;durP2;ratioP2;P2;SDS_P1;SDS_P2;PMS_P1;PMS_P2;Temp;Humidity;BMP_temperature;BMP_pressure;BME280_temperature;BME280_humidity;BME280_pressure;Samples;Min_cycle;Max_cycle;Signal;HPM_P1;HPM_P2
2021/06/19 00:02:10;;;;;;;8.52;7.55;;;22.20;99.90;;;;;;5031064;28;20756;-70
2021/06/19 00:04:38;;;;;;;11.65;8.95;;;22.20;99.90;;;;;;5030947;28;20265;-70
2021/06/19 00:07:05;;;;;;;14.00;8.15;;;22.20;99.90;;;;;;5031102;28;20211;-69
2021/06/19 00:09:33;;;;;;;11.82;9.30;;;22.10;99.90;;;;;;5030009;28;20207;-70
2021/06/19 00:12:00;;;;;;;10.93;8.98;;;22.10;99.90;;;;;;5030809;28;20207;-70
2021/06/19 00:14:28;;;;;;;13.63;8.57;;;22.10;99.90;;;;;;5030079;28;20612;-70
2021/06/19 00:16:55;;;;;;;17.90;8.98;;;22.10;99.90;;;;;;5030645;28;20223;-70
2021/06/19 00:19:22;;;;;;;10.07;8.05;;;22.10;99.90;;;;;;5030532;28;20254;-70
2021/06/19 00:21:50;;;;;;;14.32;9.32;;;22.00;99.90;;;;;;5016707;28;20208;-72
2021/06/19 00:24:21;;;;;;;12.80;8.63;;;22.00;99.90;;;;;;5030234;28;20211;-73
2021/06/19 00:26:48;;;;;;;11.52;8.70;;;22.00;99.90;;;;;;5030124;28;20210;-74
2021/06/19 00:29:15;;;;;;;12.75;8.48;;;22.00;99.90;;;;;;5030061;28;20650;-73
2021/06/19 00:31:42;;;;;;;12.90;8.30;;;22.00;99.90;;;;;;5030583;28;20211;-72
2021/06/19 00:34:09;;;;;;;13.32;8.35;;;22.00;99.90;;;;;;5034834;28;20246;-71
2021/06/19 00:36:36;;;;;;;14.55;9.07;;;22.00;99.90;;;;;;5034365;28;20725;-70
2021/06/19 00:39:06;;;;;;;14.68;10.00;;;22.00;99.90;;;;;;5034421;28;20253;-72
2021/06/19 00:41:34;;;;;;;12.40;9.90;;;21.90;99.90;;;;;;5034164;28;20219;-73
2021/06/19 00:44:01;;;;;;;9.80;8.68;;;21.90;99.90;;;;;;5034246;28;20286;-73
2021/06/19 00:46:28;;;;;;;17.85;9.55;;;21.90;99.90;;;;;;5034085;28;20636;-72
2021/06/19 00:48:55;;;;;;;10.55;8.35;;;21.90;99.90;;;;;;5034347;28;20675;-73
2021/06/19 00:51:22;;;;;;;11.55;9.23;;;21.90;99.90;;;;;;5033798;28;20286;-72
2021/06/19 00:53:49;;;;;;;15.23;8.88;;;21.90;99.90;;;;;;5034358;28;20206;-75
2021/06/19 00:56:19;;;;;;;14.68;9.73;;;21.90;99.90;;;;;;5033895;28;20260;-73
2021/06/19 00:58:46;;;;;;;12.93;10.32;;;21.90;99.90;;;;;;5034537;28;20207;-72
2021/06/19 01:01:13;;;;;;;12.05;9.35;;;21.80;99.90;;;;;;5033958;28;20234;-73
2021/06/19 01:03:40;;;;;;;8.85;5.88;;;21.80;99.90;;;;;;5034480;28;20219;-72
2021/06/19 01:06:07;;;;;;;17.10;9.30;;;21.80;99.90;;;;;;5033839;28;20199;-73
2021/06/19 01:08:34;;;;;;;15.55;8.23;;;21.80;99.90;;;;;;5034056;28;20573;-74
2021/06/19 01:11:01;;;;;;;23.58;12.35;;;21.80;99.90;;;;;;5034150;28;20215;-73
2021/06/19 01:13:30;;;;;;;14.30;9.38;;;21.80;99.90;;;;;;5033876;28;20629;-73
2021/06/19 01:15:59;;;;;;;18.25;10.80;;;21.80;99.90;;;;;;5034124;28;20622;-74
2021/06/19 01:18:26;;;;;;;18.73;10.18;;;21.80;99.90;;;;;;5020080;28;20864;-73
2021/06/19 01:20:53;;;;;;;16.98;9.77;;;21.70;99.90;;;;;;5033643;28;20561;-73
2021/06/19 01:23:20;;;;;;;23.40;10.98;;;21.70;99.90;;;;;;5033392;28;20215;-73
2021/06/19 01:25:48;;;;;;;16.67;10.75;;;21.70;99.90;;;;;;5033816;28;20601;-73
2021/06/19 01:28:15;;;;;;;21.17;11.00;;;21.70;99.90;;;;;;5033257;28;20254;-72
2021/06/19 01:30:42;;;;;;;20.45;11.07;;;21.70;99.90;;;;;;5029822;28;20257;-72
2021/06/19 01:33:09;;;;;;;18.20;11.27;;;21.70;99.90;;;;;;5025021;28;20250;-73
2021/06/19 01:35:37;;;;;;;14.75;10.55;;;21.60;99.90;;;;;;5021045;28;20212;-73
2021/06/19 01:38:06;;;;;;;21.42;11.23;;;21.70;99.90;;;;;;5032135;28;20713;-73
2021/06/19 01:40:34;;;;;;;14.95;9.90;;;21.70;99.90;;;;;;5019207;28;20307;-73
2021/06/19 01:43:03;;;;;;;16.17;9.50;;;21.70;99.90;;;;;;5033637;28;20215;-73
2021/06/19 01:45:32;;;;;;;14.98;9.07;;;21.70;99.90;;;;;;5032296;28;20294;-73
2021/06/19 01:48:03;;;;;;;13.38;9.20;;;21.70;99.90;;;;;;5023859;28;20690;-72
2021/06/19 01:50:31;;;;;;;16.48;10.25;;;21.70;99.90;;;;;;5028986;28;20265;-72
2021/06/19 01:52:59;;;;;;;26.30;14.57;;;21.60;99.90;;;;;;5033412;28;20211;-72
2021/06/19 01:55:26;;;;;;;22.65;13.40;;;21.60;99.90;;;;;;5032759;28;20753;-72
2021/06/19 01:57:55;;;;;;;21.52;12.52;;;21.60;99.90;;;;;;5033278;28;20231;-72
2021/06/19 02:00:25;;;;;;;14.40;12.90;;;21.60;99.90;;;;;;5032845;28;20203;-72
2021/06/19 02:02:52;;;;;;;25.13;15.13;;;21.60;99.90;;;;;;5032941;28;20203;-73
2021/06/19 02:05:21;;;;;;;24.58;15.88;;;21.60;99.90;;;;;;5020923;28;20212;-72
2021/06/19 02:07:50;;;;;;;21.50;14.32;;;21.70;99.90;;;;;;5030991;28;20208;-72
2021/06/19 02:10:18;;;;;;;11.77;8.77;;;21.70;99.90;;;;;;5032778;28;20266;-73
2021/06/19 02:12:45;;;;;;;12.52;8.65;;;21.70;99.90;;;;;;5032541;28;20732;-73
2021/06/19 02:15:13;;;;;;;7.25;6.53;;;21.70;99.90;;;;;;5032718;28;20277;-71
2021/06/19 02:17:42;;;;;;;19.50;9.88;;;21.70;99.90;;;;;;5032763;28;20254;-72
2021/06/19 02:20:11;;;;;;;20.92;11.43;;;21.70;99.90;;;;;;5033328;28;20250;-71
2021/06/19 02:22:39;;;;;;;13.75;9.60;;;21.70;99.90;;;;;;5032786;28;20686;-71
2021/06/19 02:25:08;;;;;;;14.90;8.85;;;21.70;99.90;;;;;;5033091;28;20207;-72
2021/06/19 02:27:36;;;;;;;25.55;15.90;;;21.80;99.90;;;;;;5032671;28;20211;-72
2021/06/19 02:30:04;;;;;;;19.55;10.68;;;21.80;99.90;;;;;;5032403;28;20287;-74
2021/06/19 02:32:31;;;;;;;13.07;9.43;;;21.90;99.90;;;;;;5031882;28;20598;-72
2021/06/19 02:34:59;;;;;;;19.08;10.98;;;21.90;99.90;;;;;;5032275;28;20729;-72
2021/06/19 02:37:26;;;;;;;11.98;9.60;;;22.00;99.90;;;;;;5032011;28;20280;-72
2021/06/19 02:39:53;;;;;;;17.23;10.68;;;22.00;99.90;;;;;;5017991;28;20208;-72
2021/06/19 02:42:20;;;;;;;19.95;15.95;;;22.00;99.90;;;;;;5031793;28;20223;-72
2021/06/19 02:44:47;;;;;;;15.95;10.57;;;22.00;99.90;;;;;;5032460;28;20330;-72
2021/06/19 02:47:14;;;;;;;17.40;10.77;;;22.00;99.90;;;;;;5031557;28;20207;-72
2021/06/19 02:49:41;;;;;;;14.70;9.55;;;22.00;99.90;;;;;;5032388;28;20248;-71
2021/06/19 02:52:10;;;;;;;23.42;10.45;;;22.10;99.90;;;;;;5032352;28;20204;-72
2021/06/19 02:54:40;;;;;;;14.95;9.90;;;22.10;99.90;;;;;;5032326;28;20319;-72
2021/06/19 02:57:08;;;;;;;10.65;7.75;;;22.10;99.90;;;;;;5032160;28;20262;-72
2021/06/19 02:59:35;;;;;;;13.95;9.13;;;22.10;99.90;;;;;;5032217;28;20207;-72
2021/06/19 03:02:02;;;;;;;14.02;8.00;;;22.00;99.90;;;;;;5031690;28;20215;-73
2021/06/19 03:04:29;;;;;;;16.73;9.82;;;22.10;99.90;;;;;;5031352;28;20670;-73
2021/06/19 03:06:56;;;;;;;15.93;10.50;;;22.10;99.90;;;;;;5032011;28;20622;-71
2021/06/19 03:09:25;;;;;;;16.77;8.85;;;22.10;99.90;;;;;;5031447;28;20674;-72
2021/06/19 03:11:52;;;;;;;10.93;8.05;;;22.10;99.90;;;;;;5031945;28;20211;-71
2021/06/19 03:14:19;;;;;;;12.30;8.30;;;22.10;99.90;;;;;;5031371;28;20619;-72
2021/06/19 03:16:46;;;;;;;11.85;8.65;;;22.10;99.90;;;;;;5031551;28;20277;-71
2021/06/19 03:19:13;;;;;;;8.15;5.53;;;22.00;99.90;;;;;;5030903;28;20788;-71
2021/06/19 03:21:42;;;;;;;6.13;5.28;;;22.10;99.90;;;;;;5031740;28;20234;-72
2021/06/19 03:24:09;;;;;;;10.00;6.68;;;22.00;99.90;;;;;;5031677;28;20683;-71
2021/06/19 03:26:38;;;;;;;6.80;5.88;;;21.90;99.90;;;;;;5024538;28;20300;-72
2021/06/19 03:29:07;;;;;;;5.38;4.70;;;21.90;99.90;;;;;;5025562;28;20215;-72
2021/06/19 03:31:34;;;;;;;7.82;6.65;;;21.90;99.90;;;;;;5030812;28;20207;-73
2021/06/19 03:34:02;;;;;;;11.52;6.00;;;21.80;99.90;;;;;;5031418;28;20215;-72
2021/06/19 03:36:30;;;;;;;12.45;7.00;;;21.80;99.90;;;;;;5030629;28;20210;-74
2021/06/19 03:38:57;;;;;;;8.90;7.85;;;21.70;99.90;;;;;;5023909;28;20254;-72
2021/06/19 03:41:24;;;;;;;15.77;14.40;;;21.70;99.90;;;;;;5024776;28;20640;-72
2021/06/19 03:43:52;;;;;;;9.43;7.60;;;21.70;99.90;;;;;;5031050;28;20628;-72
2021/06/19 03:46:19;;;;;;;6.85;5.43;;;21.70;99.90;;;;;;5030638;28;20203;-72
2021/06/19 03:48:47;;;;;;;16.58;11.00;;;21.60;99.90;;;;;;5031017;28;20666;-72
2021/06/19 03:51:14;;;;;;;21.88;9.07;;;21.70;99.90;;;;;;5030703;28;20682;-73
2021/06/19 03:53:41;;;;;;;21.05;18.40;;;21.60;99.90;;;;;;5031143;28;20628;-72
2021/06/19 03:56:08;;;;;;;10.65;8.98;;;21.60;99.90;;;;;;5031193;28;20211;-72
2021/06/19 03:58:35;;;;;;;12.82;8.77;;;21.70;99.90;;;;;;5030435;28;20239;-73
2021/06/19 04:01:07;;;;;;;15.90;9.77;;;21.60;99.90;;;;;;5029355;28;20223;-73
2021/06/19 04:03:34;;;;;;;10.77;7.70;;;21.70;99.90;;;;;;5017323;28;20291;-74
2021/06/19 04:06:01;;;;;;;8.02;6.70;;;21.70;99.90;;;;;;5030949;28;20273;-73
2021/06/19 04:08:28;;;;;;;15.35;11.57;;;21.70;99.90;;;;;;5022587;28;20686;-73
2021/06/19 04:10:55;;;;;;;24.73;13.75;;;21.70;99.90;;;;;;5030692;28;20667;-74
2021/06/19 04:13:22;;;;;;;12.77;6.00;;;21.70;99.90;;;;;;5030403;28;20686;-74
2021/06/19 04:15:50;;;;;;;15.15;10.25;;;21.70;99.90;;;;;;5030071;28;20682;-74
2021/06/19 04:18:18;;;;;;;18.25;9.63;;;21.70;99.90;;;;;;5029832;28;20333;-73
2021/06/19 04:20:45;;;;;;;18.98;11.80;;;21.70;99.90;;;;;;5026249;28;20244;-73
2021/06/19 04:23:12;;;;;;;15.32;10.85;;;21.70;99.90;;;;;;5030631;28;20203;-73
2021/06/19 04:25:39;;;;;;;25.17;13.48;;;21.80;99.90;;;;;;5031175;28;20563;-73
2021/06/19 04:28:07;;;;;;;16.50;10.35;;;21.80;99.90;;;;;;5030815;28;20215;-73
2021/06/19 04:30:34;;;;;;;9.93;8.25;;;21.80;99.90;;;;;;5030269;28;20273;-73
2021/06/19 04:33:02;;;;;;;17.17;9.05;;;21.80;99.90;;;;;;5030583;28;20207;-75
2021/06/19 04:35:32;;;;;;;15.18;9.15;;;21.80;99.90;;;;;;5030609;28;20222;-76
2021/06/19 04:37:59;;;;;;;13.27;9.02;;;21.80;99.90;;;;;;5030185;28;20646;-72
2021/06/19 04:40:32;;;;;;;10.35;7.38;;;21.80;99.90;;;;;;5015994;28;20250;-72
2021/06/19 04:43:03;;;;;;;22.52;10.15;;;21.80;99.90;;;;;;5030155;28;20257;-73
2021/06/19 04:45:30;;;;;;;19.63;13.35;;;21.80;99.90;;;;;;5029821;28;20560;-74
2021/06/19 04:47:59;;;;;;;21.38;12.50;;;21.80;99.90;;;;;;5030389;28;20634;-73
2021/06/19 04:50:26;;;;;;;20.08;11.90;;;21.80;99.90;;;;;;5029814;28;20253;-73
2021/06/19 04:52:54;;;;;;;16.58;9.70;;;21.80;99.90;;;;;;5030109;28;20686;-74
2021/06/19 04:55:21;;;;;;;15.05;10.43;;;21.80;99.90;;;;;;5026843;28;20204;-72
2021/06/19 04:57:55;;;;;;;15.68;10.10;;;21.80;99.90;;;;;;5030129;28;20235;-73
2021/06/19 05:00:23;;;;;;;13.65;11.27;;;21.90;99.90;;;;;;5029492;28;20303;-73
2021/06/19 05:02:51;;;;;;;9.50;6.07;;;21.90;99.90;;;;;;5030587;28;20214;-73
2021/06/19 05:05:18;;;;;;;15.52;8.82;;;21.90;99.90;;;;;;5029825;28;20207;-73
2021/06/19 05:07:45;;;;;;;14.82;9.50;;;22.00;99.90;;;;;;5030037;28;20208;-74
2021/06/19 05:10:15;;;;;;;13.00;8.82;;;22.10;99.90;;;;;;5029704;28;20626;-73
2021/06/19 05:12:43;;;;;;;9.68;6.88;;;22.20;99.90;;;;;;5029987;28;20249;-73
2021/06/19 05:15:13;;;;;;;28.83;18.08;;;22.30;99.90;;;;;;5030480;28;20207;-73
2021/06/19 05:17:40;;;;;;;18.65;12.52;;;22.30;99.90;;;;;;5030396;28;20207;-73
2021/06/19 05:20:08;;;;;;;15.18;8.60;;;22.30;99.90;;;;;;5032397;28;20214;-73
2021/06/19 05:22:36;;;;;;;16.45;14.20;;;22.30;99.90;;;;;;5033340;28;20407;-73
2021/06/19 05:25:03;;;;;;;25.35;12.52;;;22.50;99.90;;;;;;5033790;28;20207;-73
2021/06/19 05:27:31;;;;;;;18.65;11.90;;;22.60;99.90;;;;;;5033256;28;20211;-72
2021/06/19 05:29:58;;;;;;;22.20;11.68;;;22.80;99.90;;;;;;5034032;28;20237;-72
2021/06/19 05:32:25;;;;;;;12.98;9.18;;;22.80;99.90;;;;;;5033268;28;20215;-72
2021/06/19 05:34:52;;;;;;;10.98;6.68;;;22.70;99.90;;;;;;5033770;28;20211;-72
2021/06/19 05:37:19;;;;;;;18.65;12.13;;;22.60;99.90;;;;;;5033572;28;20289;-72
2021/06/19 05:39:46;;;;;;;16.38;7.45;;;22.50;99.90;;;;;;5019520;28;20309;-79
2021/06/19 05:42:13;;;;;;;10.77;9.57;;;22.40;99.90;;;;;;5032676;28;20226;-73
2021/06/19 05:44:42;;;;;;;19.13;12.43;;;22.40;99.90;;;;;;5033944;28;20206;-73
2021/06/19 05:47:09;;;;;;;28.67;17.67;;;22.30;99.90;;;;;;5032532;28;20207;-73
2021/06/19 05:49:36;;;;;;;14.50;13.23;;;22.20;99.90;;;;;;5033046;28;20215;-74
2021/06/19 05:52:04;;;;;;;8.18;6.38;;;22.20;99.90;;;;;;5032177;28;20207;-75
2021/06/19 05:54:35;;;;;;;11.23;6.45;;;22.10;99.90;;;;;;5028422;28;20222;-76
2021/06/19 05:57:03;;;;;;;7.20;6.60;;;22.10;99.90;;;;;;5032768;28;20294;-75
2021/06/19 05:59:30;;;;;;;13.60;8.73;;;22.10;99.90;;;;;;5032806;28;20239;-76
2021/06/19 06:01:58;;;;;;;43.50;11.30;;;22.00;99.90;;;;;;5032316;28;20204;-75
2021/06/19 06:04:25;;;;;;;15.57;8.18;;;22.10;99.90;;;;;;5032482;28;20298;-74
2021/06/19 06:06:52;;;;;;;12.07;10.57;;;22.20;99.90;;;;;;5032914;28;20215;-75
2021/06/19 06:09:19;;;;;;;13.23;9.40;;;22.10;99.90;;;;;;5031847;28;20219;-75
2021/06/19 06:11:46;;;;;;;16.02;12.07;;;22.20;99.90;;;;;;5032566;28;20265;-73
2021/06/19 06:14:13;;;;;;;23.52;21.33;;;22.20;99.90;;;;;;5032081;28;20207;-74
2021/06/19 06:16:40;;;;;;;12.82;8.98;;;22.10;99.90;;;;;;5031741;28;20625;-73
2021/06/19 06:19:09;;;;;;;11.75;10.60;;;22.30;99.90;;;;;;5032258;28;20227;-75
2021/06/19 06:21:36;;;;;;;10.82;7.38;;;22.30;99.90;;;;;;5031996;28;20203;-75
2021/06/19 06:24:03;;;;;;;11.55;10.38;;;22.30;99.90;;;;;;5032304;28;20207;-74
2021/06/19 06:26:30;;;;;;;14.88;7.65;;;22.30;99.90;;;;;;5031946;28;20563;-73
2021/06/19 06:28:57;;;;;;;10.27;7.07;;;22.40;99.90;;;;;;5031513;28;20208;-73
2021/06/19 06:31:24;;;;;;;11.60;9.05;;;22.60;99.90;;;;;;5031799;28;20218;-74
2021/06/19 06:33:51;;;;;;;14.05;9.55;;;22.60;99.90;;;;;;5021911;28;20200;-73
2021/06/19 06:36:20;;;;;;;8.35;6.35;;;22.40;99.90;;;;;;5032281;28;20215;-74
2021/06/19 06:38:47;;;;;;;10.20;8.82;;;22.40;99.90;;;;;;5028243;28;20220;-72
2021/06/19 06:41:14;;;;;;;16.00;11.23;;;22.20;99.90;;;;;;5031203;28;20265;-72
2021/06/19 06:43:40;;;;;;;28.20;15.50;;;22.20;99.90;;;;;;5032257;28;20207;-72
2021/06/19 06:46:07;;;;;;;10.45;7.75;;;22.20;99.90;;;;;;5031862;28;20203;-72
2021/06/19 06:48:34;;;;;;;11.73;7.07;;;22.20;99.90;;;;;;5031022;28;20721;-72
2021/06/19 06:51:02;;;;;;;25.90;23.38;;;22.30;99.90;;;;;;5034420;28;20208;-74
2021/06/19 06:53:30;;;;;;;7.35;6.50;;;22.30;99.90;;;;;;5031454;28;20652;-74
2021/06/19 06:55:57;;;;;;;20.65;18.95;;;22.30;99.90;;;;;;5026774;28;20208;-73
2021/06/19 06:58:24;;;;;;;7.40;6.50;;;22.30;99.90;;;;;;5029275;28;20277;-73
2021/06/19 07:00:51;;;;;;;8.68;7.85;;;22.30;99.90;;;;;;5030298;28;20261;-73
2021/06/19 07:03:18;;;;;;;12.00;7.80;;;22.40;99.90;;;;;;5031379;28;20208;-72
2021/06/19 07:05:45;;;;;;;14.02;12.60;;;22.40;99.90;;;;;;5031266;28;20204;-73
2021/06/19 07:08:12;;;;;;;6.22;5.65;;;22.40;99.90;;;;;;5030555;28;20315;-72
2021/06/19 07:10:40;;;;;;;10.98;8.98;;;22.50;99.90;;;;;;5028397;28;20253;-72
2021/06/19 07:13:07;;;;;;;13.88;12.43;;;22.60;99.90;;;;;;5035107;28;20741;-72
2021/06/19 07:15:35;;;;;;;14.48;12.00;;;22.60;99.90;;;;;;5030175;28;20207;-72
2021/06/19 07:18:02;;;;;;;78.90;12.35;;;22.60;99.90;;;;;;5031247;28;20212;-71
2021/06/19 07:20:30;;;;;;;23.90;22.15;;;22.50;99.90;;;;;;5031032;28;20235;-73
2021/06/19 07:22:57;;;;;;;105.32;25.80;;;22.50;99.90;;;;;;5029843;28;20261;-73
2021/06/19 07:25:24;;;;;;;14.40;13.18;;;22.50;99.90;;;;;;5027077;28;20209;-71
2021/06/19 07:27:54;;;;;;;8.32;7.38;;;22.70;99.90;;;;;;5026558;28;20207;-72
2021/06/19 07:30:23;;;;;;;26.88;24.27;;;22.80;99.90;;;;;;5024408;28;20211;-74
2021/06/19 07:32:50;;;;;;;8.07;6.85;;;23.10;99.90;;;;;;5025253;28;20211;-71
2021/06/19 07:35:17;;;;;;;21.00;13.05;;;23.30;99.90;;;;;;5030107;28;20678;-72
2021/06/19 07:37:44;;;;;;;26.98;8.82;;;23.40;99.90;;;;;;5030859;28;20207;-72
2021/06/19 07:40:13;;;;;;;11.45;7.88;;;23.60;99.90;;;;;;5015821;28;20301;-73
2021/06/19 07:42:40;;;;;;;12.73;9.65;;;23.90;99.90;;;;;;5029773;28;20212;-73
2021/06/19 07:45:10;;;;;;;8.25;6.40;;;23.80;99.90;;;;;;5029254;28;20258;-73
2021/06/19 07:47:37;;;;;;;8.63;7.93;;;23.90;99.90;;;;;;5022676;28;20630;-72
2021/06/19 07:50:05;;;;;;;11.27;9.65;;;23.90;99.90;;;;;;5026206;28;20565;-72
2021/06/19 07:52:32;;;;;;;16.33;10.02;;;24.10;99.90;;;;;;5026186;28;20204;-72
2021/06/19 07:55:00;;;;;;;34.30;7.20;;;24.10;99.90;;;;;;5030797;28;20698;-73
2021/06/19 07:57:27;;;;;;;25.83;5.18;;;24.10;99.90;;;;;;5030257;28;20695;-71
2021/06/19 07:59:54;;;;;;;7.43;6.70;;;23.90;99.90;;;;;;5025797;28;20253;-73
2021/06/19 08:02:22;;;;;;;10.65;6.10;;;23.60;99.90;;;;;;5028551;28;20679;-74
2021/06/19 08:04:50;;;;;;;8.05;7.28;;;23.30;99.90;;;;;;5030591;28;20755;-73
2021/06/19 08:07:17;;;;;;;7.45;6.70;;;23.10;99.90;;;;;;5029655;28;20294;-71
2021/06/19 08:09:44;;;;;;;26.80;9.63;;;23.10;99.90;;;;;;5030215;28;20207;-72
2021/06/19 08:12:12;;;;;;;7.22;6.28;;;23.20;99.90;;;;;;5029544;28;20253;-72
2021/06/19 08:14:39;;;;;;;6.20;5.60;;;23.30;99.90;;;;;;5030176;28;20203;-72
2021/06/19 08:17:14;;;;;;;5.68;4.95;;;23.40;99.90;;;;;;5029870;28;20294;-71
2021/06/19 08:19:44;;;;;;;34.00;7.30;;;23.50;99.90;;;;;;5028405;28;20231;-72
2021/06/19 08:22:11;;;;;;;20.77;19.13;;;23.70;99.90;;;;;;5029874;28;20234;-72
2021/06/19 08:24:38;;;;;;;6.30;5.32;;;23.70;99.90;;;;;;5030211;28;20249;-72
2021/06/19 08:27:06;;;;;;;7.53;7.00;;;23.70;99.90;;;;;;5024667;28;20204;-72
2021/06/19 08:29:34;;;;;;;7.82;5.75;;;23.90;99.90;;;;;;5032303;28;20208;-73
2021/06/19 08:32:01;;;;;;;5.15;4.50;;;24.00;99.90;;;;;;5026782;28;21026;-72
2021/06/19 08:34:28;;;;;;;5.22;4.72;;;24.00;99.90;;;;;;5021704;28;20215;-72
2021/06/19 08:36:56;;;;;;;6.43;5.43;;;23.90;99.90;;;;;;5029787;28;20211;-72
2021/06/19 08:39:23;;;;;;;6.15;5.55;;;24.00;99.90;;;;;;5019140;28;20236;-72
2021/06/19 08:41:54;;;;;;;8.05;6.32;;;24.10;99.90;;;;;;5027161;28;20211;-72
2021/06/19 08:44:22;;;;;;;12.77;8.15;;;24.30;99.90;;;;;;5030110;28;20204;-72
2021/06/19 08:46:50;;;;;;;12.35;11.32;;;24.40;99.90;;;;;;5029780;28;20295;-72
2021/06/19 08:49:18;;;;;;;6.55;5.30;;;24.20;99.90;;;;;;5029812;28;20212;-71
2021/06/19 08:51:45;;;;;;;6.10;5.28;;;24.30;99.90;;;;;;5030209;28;20211;-72
2021/06/19 08:54:14;;;;;;;4.28;3.88;;;24.50;99.90;;;;;;5031988;28;20624;-73
2021/06/19 08:56:41;;;;;;;7.07;5.13;;;24.40;99.90;;;;;;5034078;28;20203;-74
2021/06/19 08:59:08;;;;;;;7.93;4.18;;;24.20;99.90;;;;;;5034285;28;20231;-72
2021/06/19 09:01:35;;;;;;;15.52;12.38;;;24.00;99.90;;;;;;5034039;28;20211;-72
2021/06/19 09:04:05;;;;;;;25.50;9.45;;;23.90;99.90;;;;;;5033563;28;20663;-73
2021/06/19 09:06:32;;;;;;;7.47;6.00;;;23.80;99.90;;;;;;5033510;28;20215;-76
2021/06/19 09:09:05;;;;;;;11.88;7.72;;;23.60;99.90;;;;;;5033643;28;20203;-73
2021/06/19 09:11:36;;;;;;;5.63;4.53;;;23.60;99.90;;;;;;5031699;28;20222;-73
2021/06/19 09:14:05;;;;;;;10.52;5.97;;;23.70;99.90;;;;;;5031383;28;20231;-73
2021/06/19 09:16:32;;;;;;;8.85;6.30;;;23.80;99.90;;;;;;5033412;28;20212;-72
2021/06/19 09:18:59;;;;;;;12.15;5.60;;;23.80;99.90;;;;;;5033285;28;20212;-73
2021/06/19 09:21:35;;;;;;;8.70;5.38;;;23.80;99.90;;;;;;5033426;28;20222;-73
2021/06/19 09:24:03;;;;;;;13.70;7.15;;;24.00;99.90;;;;;;5033481;28;20211;-72
2021/06/19 09:26:32;;;;;;;9.15;5.35;;;24.00;99.90;;;;;;5032854;28;20563;-72
2021/06/19 09:29:09;;;;;;;11.27;10.00;;;24.20;99.90;;;;;;5031606;28;20203;-73
2021/06/19 09:31:44;;;;;;;20.60;6.80;;;24.20;99.90;;;;;;5026863;28;20704;-74
2021/06/19 09:34:14;;;;;;;11.63;5.68;;;24.30;99.90;;;;;;5027944;28;20218;-72
2021/06/19 09:36:48;;;;;;;8.10;5.30;;;24.30;99.90;;;;;;5033120;28;20211;-73
2021/06/19 09:39:17;;;;;;;12.68;11.48;;;24.50;99.90;;;;;;5023487;28;20228;-74
2021/06/19 09:41:47;;;;;;;8.98;6.38;;;24.40;99.90;;;;;;5029326;28;20223;-73
2021/06/19 09:44:15;;;;;;;9.43;5.95;;;24.40;99.90;;;;;;5033112;28;20208;-74
2021/06/19 09:46:43;;;;;;;10.00;8.57;;;24.40;99.90;;;;;;5032939;28;20207;-73
2021/06/19 09:49:16;;;;;;;10.23;6.32;;;24.40;99.90;;;;;;5032375;28;20249;-76
2021/06/19 09:51:50;;;;;;;8.23;6.82;;;24.50;99.90;;;;;;5029810;28;20282;-73
2021/06/19 09:54:18;;;;;;;12.70;7.38;;;24.60;99.90;;;;;;5031774;28;20563;-73
2021/06/19 09:56:52;;;;;;;9.85;8.07;;;24.80;99.90;;;;;;5032953;28;20261;-75
2021/06/19 09:59:25;;;;;;;8.18;4.47;;;24.90;99.90;;;;;;5019591;28;20235;-73
2021/06/19 10:01:53;;;;;;;6.35;3.65;;;25.50;99.90;;;;;;5032381;28;20211;-76
2021/06/19 10:04:21;;;;;;;15.98;9.45;;;26.10;99.90;;;;;;5032725;28;20212;-74
2021/06/19 10:06:48;;;;;;;12.10;5.25;;;27.30;99.90;;;;;;5032122;28;20212;-73
2021/06/19 10:09:15;;;;;;;7.90;5.68;;;27.40;99.90;;;;;;5032175;28;20618;-74
2021/06/19 10:11:44;;;;;;;14.88;6.95;;;26.60;99.90;;;;;;5030927;28;20269;-74
2021/06/19 10:14:16;;;;;;;10.55;8.40;;;26.40;99.90;;;;;;5030426;28;20203;-72
2021/06/19 10:16:45;;;;;;;9.82;5.50;;;26.10;99.90;;;;;;5032115;28;20774;-74
2021/06/19 10:19:12;;;;;;;9.63;4.90;;;26.40;99.90;;;;;;5031837;28;20203;-74
2021/06/19 10:21:40;;;;;;;10.68;7.35;;;26.90;99.90;;;;;;5032740;28;20690;-73
2021/06/19 10:24:08;;;;;;;14.73;6.57;;;29.60;99.90;;;;;;5032707;28;20709;-73
2021/06/19 10:26:37;;;;;;;10.52;8.18;;;32.90;99.90;;;;;;5032158;28;20211;-73
2021/06/19 10:29:06;;;;;;;13.68;10.52;;;34.90;99.90;;;;;;5032383;28;20623;-72
2021/06/19 10:31:40;;;;;;;9.32;4.30;;;35.30;99.90;;;;;;5026587;28;20261;-76
2021/06/19 10:34:28;;;;;;;7.47;3.72;;;35.50;99.90;;;;;;5031851;28;20203;-73
2021/06/19 10:36:57;;;;;;;7.60;5.22;;;33.10;99.90;;;;;;5027593;28;20207;-76
2021/06/19 10:39:41;;;;;;;16.42;5.35;;;29.80;99.90;;;;;;5020873;28;20262;-80
2021/06/19 10:42:24;;;;;;;9.80;6.45;;;28.30;99.90;;;;;;5031789;28;20249;-79
2021/06/19 10:44:54;;;;;;;7.82;5.28;;;27.60;99.90;;;;;;5032654;28;20249;-80
2021/06/19 10:47:23;;;;;;;11.73;4.80;;;28.20;99.90;;;;;;5030745;28;20216;-76
2021/06/19 10:49:52;;;;;;;71.60;10.23;;;28.10;99.90;;;;;;5032604;28;20215;-78
2021/06/19 10:52:31;;;;;;;11.88;4.20;;;28.60;99.90;;;;;;5032028;28;20207;-79
2021/06/19 10:55:25;;;;;;;13.73;5.57;;;28.50;99.90;;;;;;5032481;28;20207;-82
2021/06/19 10:57:54;;;;;;;8.50;3.70;;;28.70;99.90;;;;;;5020817;28;20773;-74
2021/06/19 11:00:29;;;;;;;9.68;5.63;;;28.50;99.90;;;;;;5030894;28;20242;-74
2021/06/19 11:02:58;;;;;;;14.85;7.35;;;28.20;99.90;;;;;;5032143;28;20199;-74
2021/06/19 11:05:58;;;;;;;12.77;5.43;;;28.30;99.90;;;;;;5031475;28;20765;-75
2021/06/19 11:08:25;;;;;;;10.65;5.20;;;28.00;99.90;;;;;;5031372;28;20298;-75
2021/06/19 11:10:55;;;;;;;9.73;5.45;;;28.10;99.90;;;;;;5031697;28;20200;-75
2021/06/19 11:13:41;;;;;;;9.77;5.40;;;28.50;99.90;;;;;;5025053;28;20283;-77
2021/06/19 11:16:44;;;;;;;16.58;6.72;;;28.50;99.90;;;;;;5031274;28;20265;-77
2021/06/19 11:19:12;;;;;;;16.08;6.45;;;28.70;99.90;;;;;;5030186;28;20215;-76
2021/06/19 11:21:40;;;;;;;12.45;5.82;;;28.70;99.90;;;;;;5031972;28;20235;-75
2021/06/19 11:24:11;;;;;;;15.05;8.85;;;28.80;99.90;;;;;;5030555;28;20207;-75
2021/06/19 11:26:50;;;;;;;12.20;4.60;;;28.90;99.90;;;;;;5028092;28;20589;-75
2021/06/19 11:29:36;;;;;;;11.57;5.10;;;28.70;99.90;;;;;;5029837;28;20687;-75
2021/06/19 11:32:21;;;;;;;19.52;6.97;;;28.80;99.90;;;;;;5030372;28;20203;-76
2021/06/19 11:34:48;;;;;;;14.85;5.40;;;28.80;99.90;;;;;;5029088;28;20691;-75
2021/06/19 11:37:17;;;;;;;13.25;5.57;;;28.70;99.90;;;;;;5025516;28;20667;-77
2021/06/19 11:39:44;;;;;;;10.57;6.53;;;29.10;99.90;;;;;;5016157;28;20212;-74
2021/06/19 11:42:12;;;;;;;13.65;5.50;;;29.40;99.90;;;;;;5026731;28;20358;-75
2021/06/19 11:44:42;;;;;;;14.75;6.63;;;29.60;99.90;;;;;;5030603;28;20215;-75
2021/06/19 11:47:09;;;;;;;13.02;7.07;;;29.30;99.90;;;;;;5022861;28;20207;-76
2021/06/19 11:49:43;;;;;;;29.92;5.90;;;29.10;99.90;;;;;;5030772;28;20291;-75
2021/06/19 11:52:13;;;;;;;14.43;6.25;;;28.80;99.90;;;;;;5030024;28;20203;-75
2021/06/19 11:54:45;;;;;;;28.70;6.75;;;28.70;99.90;;;;;;5023117;28;20630;-75
2021/06/19 11:57:23;;;;;;;10.38;5.75;;;28.50;99.90;;;;;;5029986;28;20203;-74
2021/06/19 12:00:10;;;;;;;14.23;7.47;;;28.90;99.90;;;;;;5027151;28;20261;-77
2021/06/19 12:02:37;;;;;;;11.48;6.03;;;28.40;99.90;;;;;;5026191;28;20283;-75
2021/06/19 12:05:13;;;;;;;14.02;6.15;;;28.20;99.90;;;;;;5030403;28;20235;-76
2021/06/19 12:07:40;;;;;;;14.30;7.18;;;28.10;99.90;;;;;;5029125;28;20207;-74
2021/06/19 12:10:26;;;;;;;13.40;5.85;;;28.20;99.90;;;;;;5030652;28;20655;-74
2021/06/19 12:12:57;;;;;;;12.98;6.90;;;27.90;99.90;;;;;;5017026;28;20290;-76
2021/06/19 12:15:25;;;;;;;14.48;8.10;;;27.60;99.90;;;;;;5023539;28;20239;-76
2021/06/19 12:17:52;;;;;;;14.20;7.20;;;27.60;99.90;;;;;;5029669;28;20203;-79
2021/06/19 12:20:21;;;;;;;7.20;5.63;;;27.70;99.90;;;;;;5030274;28;20227;-76
2021/06/19 12:22:48;;;;;;;17.95;6.47;;;27.70;99.90;;;;;;5024615;28;20204;-75
2021/06/19 12:25:29;;;;;;;13.70;7.03;;;27.70;99.90;;;;;;5028592;28;20210;-76
2021/06/19 12:27:56;;;;;;;14.65;6.60;;;27.70;99.90;;;;;;5026722;28;20674;-75
2021/06/19 12:30:24;;;;;;;19.02;8.52;;;27.80;99.90;;;;;;5027937;28;20215;-76
2021/06/19 12:32:51;;;;;;;12.52;5.60;;;27.90;99.90;;;;;;5027420;28;20728;-76
2021/06/19 12:35:19;;;;;;;20.52;8.05;;;28.00;99.90;;;;;;5028430;28;20207;-77
2021/06/19 12:37:51;;;;;;;12.25;7.30;;;27.70;99.90;;;;;;5029227;28;20208;-75
2021/06/19 12:40:19;;;;;;;11.07;6.53;;;27.80;99.90;;;;;;5029781;28;20607;-76
2021/06/19 12:43:01;;;;;;;10.40;6.68;;;27.70;99.90;;;;;;5030031;28;20737;-74
2021/06/19 12:45:33;;;;;;;17.27;7.25;;;27.40;99.90;;;;;;5028814;28;20277;-73